Time,TemperatureF,DewpointF,PressureIn,WindDirection,WindDirectionDegrees,WindSpeedMPH,WindSpeedGustMPH,Humidity,HourlyPrecipIn,Conditions,Clouds,dailyrainin,SoftwareType,DateUTC
2013-03-31 00:23:00,50.0,36.0,-100.00,South,184,3.0,6.0,58,0.00,,,0.00,,2013-03-31 04:23:00,
2013-03-31 00:33:00,50.0,36.0,-100.00,South,184,3.0,6.0,58,0.00,,,0.00,,2013-03-31 04:33:00,
2013-03-31 00:42:00,50.0,36.0,-100.00,South,184,3.0,6.0,58,0.00,,,0.00,,2013-03-31 04:42:00,
2013-03-31 00:52:00,50.0,36.0,-100.00,South,184,3.0,6.0,58,0.00,,,0.00,,2013-03-31 04:52:00,
2013-03-31 01:22:00,50.0,37.0,-100.00,South,180,3.0,6.0,61,0.00,,,0.00,,2013-03-31 05:22:00,
2013-03-31 01:32:00,50.0,37.0,-100.00,South,180,3.0,6.0,61,0.00,,,0.00,,2013-03-31 05:32:00,
2013-03-31 01:42:00,50.0,37.0,-100.00,South,180,3.0,6.0,61,0.00,,,0.00,,2013-03-31 05:42:00,
2013-03-31 01:52:00,50.0,37.0,-100.00,South,180,3.0,6.0,61,0.00,,,0.00,,2013-03-31 05:52:00,
2013-03-31 02:23:00,49.0,39.0,-100.00,South,186,1.0,5.0,67,0.00,,,0.00,,2013-03-31 06:23:00,
2013-03-31 02:33:00,49.0,39.0,-100.00,South,186,1.0,5.0,67,0.00,,,0.00,,2013-03-31 06:33:00,
2013-03-31 02:42:00,49.0,39.0,-100.00,South,186,1.0,5.0,67,0.00,,,0.00,,2013-03-31 06:42:00,
2013-03-31 02:52:00,49.0,39.0,-100.00,South,186,1.0,5.0,67,0.00,,,0.00,,2013-03-31 06:52:00,
2013-03-31 03:22:00,48.0,41.0,-100.00,WSW,239,2.0,4.0,76,0.00,,,0.00,,2013-03-31 07:22:00,
2013-03-31 03:33:00,48.0,41.0,-100.00,WSW,239,2.0,4.0,76,0.00,,,0.00,,2013-03-31 07:33:00,
2013-03-31 03:43:00,48.0,41.0,-100.00,WSW,239,2.0,4.0,76,0.00,,,0.00,,2013-03-31 07:43:00,
2013-03-31 03:52:00,48.0,41.0,-100.00,WSW,239,2.0,4.0,76,0.00,,,0.00,,2013-03-31 07:52:00,
2013-03-31 04:22:00,47.0,44.0,-100.00,SSE,167,0.0,6.0,89,0.01,,,0.01,,2013-03-31 08:22:00,
2013-03-31 04:32:00,47.0,44.0,-100.00,SSE,167,0.0,6.0,89,0.01,,,0.01,,2013-03-31 08:32:00,
2013-03-31 04:42:00,47.0,44.0,-100.00,SSE,167,0.0,6.0,89,0.01,,,0.01,,2013-03-31 08:42:00,
2013-03-31 04:52:00,47.0,44.0,-100.00,SSE,167,0.0,6.0,89,0.01,,,0.01,,2013-03-31 08:52:00,
2013-03-31 05:22:00,46.0,44.0,-100.00,SE,136,0.0,3.0,93,0.00,,,0.01,,2013-03-31 09:22:00,
2013-03-31 05:33:00,46.0,44.0,-100.00,SE,136,0.0,3.0,93,0.00,,,0.01,,2013-03-31 09:33:00,
2013-03-31 05:43:00,46.0,44.0,-100.00,SE,136,0.0,3.0,93,0.00,,,0.01,,2013-03-31 09:43:00,
2013-03-31 05:53:00,46.0,44.0,-100.00,SE,136,0.0,3.0,93,0.00,,,0.01,,2013-03-31 09:53:00,
2013-03-31 06:24:00,46.0,45.0,-100.00,North,0,0.0,3.0,95,0.01,,,0.02,,2013-03-31 10:24:00,
2013-03-31 06:33:00,46.0,45.0,-100.00,North,0,0.0,3.0,95,0.01,,,0.02,,2013-03-31 10:33:00,
2013-03-31 06:42:00,46.0,45.0,-100.00,North,0,0.0,3.0,95,0.01,,,0.02,,2013-03-31 10:42:00,
2013-03-31 06:53:00,46.0,45.0,-100.00,North,0,0.0,3.0,95,0.01,,,0.02,,2013-03-31 10:53:00,
2013-03-31 07:23:00,45.0,44.0,-100.00,North,356,0.0,2.0,96,0.00,,,0.02,,2013-03-31 11:23:00,
2013-03-31 07:33:00,45.0,44.0,-100.00,North,356,0.0,2.0,96,0.00,,,0.02,,2013-03-31 11:33:00,
2013-03-31 07:42:00,45.0,44.0,-100.00,North,356,0.0,2.0,96,0.00,,,0.02,,2013-03-31 11:42:00,
2013-03-31 07:52:00,45.0,44.0,-100.00,North,356,0.0,2.0,96,0.00,,,0.02,,2013-03-31 11:52:00,
2013-03-31 08:22:00,45.0,44.0,-100.00,SE,145,0.0,0.0,97,0.00,,,0.02,,2013-03-31 12:22:00,
2013-03-31 08:33:00,45.0,44.0,-100.00,SE,145,0.0,0.0,97,0.00,,,0.02,,2013-03-31 12:33:00,
2013-03-31 08:42:00,45.0,44.0,-100.00,SE,145,0.0,0.0,97,0.00,,,0.02,,2013-03-31 12:42:00,
2013-03-31 08:52:00,45.0,44.0,-100.00,SE,145,0.0,0.0,97,0.00,,,0.02,,2013-03-31 12:52:00,
2013-03-31 09:23:00,47.0,46.0,-100.00,WNW,286,0.0,0.0,96,0.00,,,0.02,,2013-03-31 13:23:00,
2013-03-31 09:32:00,47.0,46.0,-100.00,WNW,286,0.0,0.0,96,0.00,,,0.02,,2013-03-31 13:32:00,
2013-03-31 09:42:00,47.0,46.0,-100.00,WNW,286,0.0,0.0,96,0.00,,,0.02,,2013-03-31 13:42:00,
2013-03-31 09:52:00,47.0,46.0,-100.00,WNW,286,0.0,0.0,96,0.00,,,0.02,,2013-03-31 13:52:00,
2013-03-31 10:22:00,47.0,45.0,-100.00,West,264,3.0,5.0,93,0.00,,,0.02,,2013-03-31 14:22:00,
2013-03-31 10:33:00,47.0,45.0,-100.00,West,264,3.0,5.0,93,0.00,,,0.02,,2013-03-31 14:33:00,
2013-03-31 10:43:00,47.0,45.0,-100.00,West,264,3.0,5.0,93,0.00,,,0.02,,2013-03-31 14:43:00,
2013-03-31 10:52:00,47.0,45.0,-100.00,West,264,3.0,5.0,93,0.00,,,0.02,,2013-03-31 14:52:00,
2013-03-31 11:23:00,46.0,45.0,-100.00,West,259,2.0,7.0,97,0.03,,,0.05,,2013-03-31 15:23:00,
2013-03-31 11:34:00,46.0,45.0,-100.00,West,259,2.0,7.0,97,0.03,,,0.05,,2013-03-31 15:34:00,
2013-03-31 11:43:00,46.0,45.0,-100.00,West,259,2.0,7.0,97,0.03,,,0.05,,2013-03-31 15:43:00,
2013-03-31 11:53:00,46.0,45.0,-100.00,West,259,2.0,7.0,97,0.03,,,0.05,,2013-03-31 15:53:00,
2013-03-31 12:23:00,48.0,47.0,-100.00,West,263,3.0,7.0,97,0.00,,,0.05,,2013-03-31 16:23:00,
2013-03-31 12:33:00,48.0,47.0,-100.00,West,263,3.0,7.0,97,0.00,,,0.05,,2013-03-31 16:33:00,
2013-03-31 12:43:00,48.0,47.0,-100.00,West,263,3.0,7.0,97,0.00,,,0.05,,2013-03-31 16:43:00,
2013-03-31 12:53:00,48.0,47.0,-100.00,West,263,3.0,7.0,97,0.00,,,0.05,,2013-03-31 16:53:00,
2013-03-31 13:23:00,49.0,46.0,-100.00,WSW,251,5.0,10.0,91,0.00,,,-99.99,,2013-03-31 17:23:00,
2013-03-31 13:32:00,49.0,46.0,-100.00,WSW,251,5.0,10.0,91,0.00,,,-99.99,,2013-03-31 17:32:00,
2013-03-31 13:43:00,49.0,46.0,-100.00,WSW,251,5.0,10.0,91,0.00,,,-99.99,,2013-03-31 17:43:00,
2013-03-31 13:52:00,49.0,46.0,-100.00,WSW,251,5.0,10.0,91,0.00,,,-99.99,,2013-03-31 17:52:00,
2013-03-31 14:22:00,50.0,47.0,-100.00,WSW,251,5.0,12.0,88,0.00,,,0.05,,2013-03-31 18:22:00,
2013-03-31 14:33:00,50.0,47.0,-100.00,WSW,251,5.0,12.0,88,0.00,,,0.05,,2013-03-31 18:33:00,
2013-03-31 14:42:00,50.0,47.0,-100.00,WSW,251,5.0,12.0,88,0.00,,,0.05,,2013-03-31 18:42:00,
2013-03-31 14:52:00,50.0,47.0,-100.00,WSW,251,5.0,12.0,88,0.00,,,0.05,,2013-03-31 18:52:00,
2013-03-31 15:22:00,51.0,46.0,-100.00,WSW,244,6.0,12.0,83,0.00,,,0.05,,2013-03-31 19:22:00,
2013-03-31 15:33:00,51.0,46.0,-100.00,WSW,244,6.0,12.0,83,0.00,,,0.05,,2013-03-31 19:33:00,
2013-03-31 15:43:00,51.0,46.0,-100.00,WSW,244,6.0,12.0,83,0.00,,,0.05,,2013-03-31 19:43:00,
2013-03-31 15:53:00,51.0,46.0,-100.00,WSW,244,6.0,12.0,83,0.00,,,0.05,,2013-03-31 19:53:00,
2013-03-31 16:23:00,55.0,46.0,-100.00,WSW,255,5.0,13.0,71,0.00,,,0.05,,2013-03-31 20:23:00,
2013-03-31 16:34:00,55.0,46.0,-100.00,WSW,255,5.0,13.0,71,0.00,,,0.05,,2013-03-31 20:34:00,
2013-03-31 16:43:00,55.0,46.0,-100.00,WSW,255,5.0,13.0,71,0.00,,,0.05,,2013-03-31 20:43:00,
2013-03-31 16:52:00,55.0,46.0,-100.00,WSW,255,5.0,13.0,71,0.00,,,0.05,,2013-03-31 20:52:00,
2013-03-31 18:24:00,58.0,42.0,-100.00,WSW,258,4.0,12.0,56,-99.99,,,0.05,,2013-03-31 22:24:00,
2013-03-31 18:33:00,58.0,42.0,-100.00,WSW,258,4.0,12.0,56,-99.99,,,0.05,,2013-03-31 22:33:00,
2013-03-31 18:43:00,58.0,42.0,-100.00,WSW,258,4.0,12.0,56,-99.99,,,0.05,,2013-03-31 22:43:00,
2013-03-31 18:53:00,58.0,42.0,-100.00,WSW,258,4.0,12.0,56,-99.99,,,0.05,,2013-03-31 22:53:00,
2013-03-31 19:22:00,56.0,40.0,-100.00,WSW,250,4.0,15.0,54,0.00,,,0.05,,2013-03-31 23:22:00,
2013-03-31 19:33:00,56.0,40.0,-100.00,WSW,250,4.0,15.0,54,0.00,,,0.05,,2013-03-31 23:33:00,
2013-03-31 19:43:00,56.0,40.0,-100.00,WSW,250,4.0,15.0,54,0.00,,,0.05,,2013-03-31 23:43:00,
2013-03-31 19:53:00,56.0,40.0,-100.00,WSW,250,4.0,15.0,54,0.00,,,0.05,,2013-03-31 23:53:00,
2013-03-31 20:22:00,54.0,38.0,-100.00,WSW,251,4.0,10.0,55,0.00,,,0.05,,2013-04-01 00:22:00,
2013-03-31 20:32:00,54.0,38.0,-100.00,WSW,251,4.0,10.0,55,0.00,,,0.05,,2013-04-01 00:32:00,
2013-03-31 20:43:00,54.0,38.0,-100.00,WSW,251,4.0,10.0,55,0.00,,,0.05,,2013-04-01 00:43:00,
2013-03-31 20:52:00,54.0,38.0,-100.00,WSW,251,4.0,10.0,55,0.00,,,0.05,,2013-04-01 00:52:00,
2013-03-31 21:23:00,52.0,38.0,-100.00,SW,226,3.0,6.0,59,0.00,,,0.05,,2013-04-01 01:23:00,
2013-03-31 21:33:00,52.0,38.0,-100.00,SW,226,3.0,6.0,59,0.00,,,0.05,,2013-04-01 01:33:00,
2013-03-31 21:42:00,52.0,38.0,-100.00,SW,226,3.0,6.0,59,0.00,,,0.05,,2013-04-01 01:42:00,
2013-03-31 21:52:00,52.0,38.0,-100.00,SW,226,3.0,6.0,59,0.00,,,0.05,,2013-04-01 01:52:00,
2013-03-31 22:23:00,50.0,38.0,-100.00,SW,227,3.0,6.0,62,0.00,,,0.05,,2013-04-01 02:23:00,
2013-03-31 22:33:00,50.0,38.0,-100.00,SW,227,3.0,6.0,62,0.00,,,0.05,,2013-04-01 02:33:00,
2013-03-31 22:42:00,50.0,38.0,-100.00,SW,227,3.0,6.0,62,0.00,,,0.05,,2013-04-01 02:42:00,
2013-03-31 22:52:00,50.0,38.0,-100.00,SW,227,3.0,6.0,62,0.00,,,0.05,,2013-04-01 02:52:00,
2013-03-31 23:23:00,49.0,38.0,-100.00,SW,226,4.0,8.0,65,0.00,,,0.05,,2013-04-01 03:23:00,
2013-03-31 23:34:00,49.0,38.0,-100.00,SW,226,4.0,8.0,65,0.00,,,0.05,,2013-04-01 03:34:00,
2013-03-31 23:43:00,49.0,38.0,-100.00,SW,226,4.0,8.0,65,0.00,,,0.05,,2013-04-01 03:43:00,
2013-03-31 23:53:00,49.0,38.0,-100.00,SW,226,4.0,8.0,65,0.00,,,0.05,,2013-04-01 03:53:00,